createdAt,value
2022-08-23T00:00:12.950Z,40.04
2022-08-23T00:02:43.395Z,39.94
2022-08-23T00:05:13.672Z,40.22
2022-08-23T00:07:45.682Z,40.15
2022-08-23T00:10:16.582Z,39.98
2022-08-23T00:12:46.032Z,40.17
2022-08-23T00:15:18.140Z,40.47
2022-08-23T00:17:46.675Z,40.20
2022-08-23T00:20:18.670Z,40.50
2022-08-23T00:22:47.726Z,40.16
2022-08-23T00:25:16.744Z,39.92
2022-08-23T00:27:45.853Z,39.87
2022-08-23T00:30:16.136Z,40.07
2022-08-23T00:32:45.511Z,40.09
2022-08-23T00:35:26.608Z,40.34
2022-08-23T00:38:33.422Z,40.16
2022-08-23T00:40:51.219Z,40.27
2022-08-23T00:43:41.760Z,40.48
2022-08-23T00:46:44.922Z,40.62
2022-08-23T00:49:14.510Z,40.43
2022-08-23T00:51:52.432Z,40.30
2022-08-23T00:54:24.565Z,40.51
2022-08-23T00:56:54.961Z,40.31
2022-08-23T00:59:24.417Z,40.62
2022-08-23T01:01:54.743Z,41.01
2022-08-23T01:04:23.375Z,40.53
2022-08-23T01:06:58.439Z,40.90
2022-08-23T01:09:27.321Z,41.12
2022-08-23T01:12:05.209Z,41.37
2022-08-23T01:14:37.709Z,41.00
2022-08-23T01:17:14.993Z,41.31
2022-08-23T01:19:50.028Z,41.54
2022-08-23T01:22:24.141Z,41.55
2022-08-23T01:25:07.438Z,41.59
2022-08-23T01:27:41.285Z,41.56
2022-08-23T01:30:18.609Z,41.70
2022-08-23T01:32:50.108Z,41.70
2022-08-23T01:37:54.622Z,42.11
2022-08-23T01:40:24.691Z,41.76
2022-08-23T01:42:53.541Z,42.22
2022-08-23T01:45:22.723Z,42.25
2022-08-23T01:47:51.259Z,42.23
2022-08-23T01:50:20.628Z,42.59
2022-08-23T01:52:49.131Z,42.22
2022-08-23T01:55:21.946Z,42.32
2022-08-23T01:57:57.036Z,42.49
2022-08-23T02:00:30.874Z,42.46
2022-08-23T02:03:01.111Z,42.38
2022-08-23T02:05:30.786Z,42.49
2022-08-23T02:08:20.263Z,42.82
2022-08-23T02:10:51.052Z,42.68
2022-08-23T02:13:21.989Z,42.92
2022-08-23T02:15:52.544Z,43.05
2022-08-23T02:18:22.717Z,43.04
2022-08-23T02:20:53.774Z,43.10
2022-08-23T02:23:24.214Z,43.25
2022-08-23T02:25:53.783Z,43.63
2022-08-23T02:28:25.796Z,43.38
2022-08-23T02:30:55.261Z,43.32
2022-08-23T02:33:24.319Z,43.62
2022-08-23T02:35:53.093Z,44.04
2022-08-23T02:38:22.505Z,44.03
2022-08-23T02:40:53.056Z,44.10
2022-08-23T02:43:36.440Z,44.00
2022-08-23T02:46:07.219Z,44.26
2022-08-23T02:48:36.415Z,44.46
2022-08-23T02:51:09.331Z,44.66
2022-08-23T02:53:38.638Z,44.62
2022-08-23T02:56:21.292Z,44.69
2022-08-23T02:58:54.205Z,44.84
2022-08-23T03:01:26.663Z,45.13
2022-08-23T03:03:57.958Z,45.09
2022-08-23T03:06:28.302Z,45.35
2022-08-23T03:08:57.520Z,45.52
2022-08-23T03:11:26.678Z,45.91
2022-08-23T03:13:57.678Z,45.81
2022-08-23T03:16:26.850Z,45.97
2022-08-23T03:18:55.350Z,45.77
2022-08-23T03:21:24.082Z,45.99
2022-08-23T03:23:53.819Z,46.08
2022-08-23T03:26:23.076Z,46.31
2022-08-23T03:28:52.251Z,46.64
2022-08-23T03:31:24.268Z,46.64
2022-08-23T03:34:02.911Z,46.59
2022-08-23T03:36:31.645Z,46.74
2022-08-23T03:39:01.456Z,46.94
2022-08-23T03:41:30.734Z,46.76
2022-08-23T03:43:59.542Z,46.97
2022-08-23T03:46:34.233Z,47.28
2022-08-23T03:49:04.228Z,47.04
2022-08-23T03:51:43.898Z,47.60
2022-08-23T03:54:12.456Z,47.66
2022-08-23T03:56:51.156Z,47.67
2022-08-23T03:59:20.141Z,47.83
2022-08-23T04:01:50.286Z,47.94
2022-08-23T04:04:19.267Z,47.91
2022-08-23T04:07:10.861Z,47.71
2022-08-23T04:09:39.645Z,47.81
2022-08-23T04:12:12.100Z,47.94
2022-08-23T04:14:46.990Z,48.19
2022-08-23T04:17:21.002Z,47.87
2022-08-23T04:19:50.725Z,47.74
2022-08-23T04:22:21.564Z,47.64
2022-08-23T04:24:50.579Z,48.05
2022-08-23T04:27:19.108Z,47.94
2022-08-23T04:29:49.224Z,47.80
2022-08-23T04:32:26.644Z,48.14
2022-08-23T04:34:58.896Z,47.91
2022-08-23T04:37:28.706Z,48.00
2022-08-23T04:40:15.795Z,47.99
2022-08-23T04:42:44.682Z,48.16
2022-08-23T04:45:14.340Z,48.27
2022-08-23T04:47:48.223Z,48.21
2022-08-23T04:50:17.669Z,48.31
2022-08-23T04:53:05.074Z,48.40
2022-08-23T04:55:38.918Z,48.23
2022-08-23T04:58:08.364Z,48.22
2022-08-23T05:00:50.855Z,48.17
2022-08-23T05:03:24.352Z,48.09
2022-08-23T05:05:54.427Z,48.20
2022-08-23T05:08:29.044Z,48.08
2022-08-23T05:11:00.542Z,48.28
2022-08-23T05:13:30.064Z,48.05
2022-08-23T05:16:01.502Z,47.89
2022-08-23T05:18:36.388Z,47.89
2022-08-23T05:21:05.333Z,47.80
2022-08-23T05:23:35.586Z,47.65
2022-08-23T05:26:13.576Z,47.69
2022-08-23T05:28:45.452Z,47.57
2022-08-23T05:31:18.838Z,47.70
2022-08-23T05:34:15.105Z,47.63
2022-08-23T05:36:55.626Z,47.57
2022-08-23T05:39:36.203Z,47.22
2022-08-23T05:42:14.505Z,47.11
2022-08-23T05:44:43.759Z,47.40
2022-08-23T05:47:15.926Z,47.35
2022-08-23T05:50:12.368Z,47.56
2022-08-23T05:52:41.664Z,47.51
2022-08-23T05:55:11.163Z,47.20
2022-08-23T05:57:42.622Z,47.34
2022-08-23T06:00:14.186Z,47.46
2022-08-23T06:02:49.341Z,47.35
2022-08-23T06:05:22.949Z,47.29
2022-08-23T06:07:52.232Z,47.07
2022-08-23T06:10:23.751Z,47.14
2022-08-23T06:12:59.055Z,46.70
2022-08-23T06:15:27.608Z,46.99
2022-08-23T06:17:56.458Z,46.90
2022-08-23T06:20:27.151Z,47.21
2022-08-23T06:23:00.502Z,46.92
2022-08-23T06:25:30.330Z,46.46
2022-08-23T06:28:25.844Z,46.49
2022-08-23T06:30:57.435Z,46.23
2022-08-23T06:33:30.576Z,46.22
2022-08-23T06:36:20.676Z,46.16
2022-08-23T06:39:16.972Z,46.63
2022-08-23T06:42:02.160Z,45.82
2022-08-23T06:44:32.752Z,45.96
2022-08-23T06:47:28.647Z,46.17
2022-08-23T06:49:58.669Z,46.45
2022-08-23T06:52:49.632Z,45.82
2022-08-23T06:55:35.042Z,46.06
2022-08-23T06:58:16.413Z,45.68
2022-08-23T07:01:42.060Z,45.22
2022-08-23T07:04:09.685Z,45.48
2022-08-23T07:06:56.926Z,44.94
2022-08-23T07:09:27.300Z,45.66
2022-08-23T07:11:57.144Z,45.35
2022-08-23T07:14:26.023Z,45.03
2022-08-23T07:16:57.424Z,44.21
2022-08-23T07:19:29.301Z,44.35
2022-08-23T07:21:58.534Z,44.47
2022-08-23T07:24:33.004Z,44.12
2022-08-23T07:27:07.308Z,43.83
2022-08-23T07:29:40.571Z,43.97
2022-08-23T07:32:10.957Z,43.83
2022-08-23T07:34:39.918Z,43.58
2022-08-23T07:37:15.540Z,43.54
2022-08-23T07:39:46.474Z,43.88
2022-08-23T07:42:23.394Z,43.47
2022-08-23T07:44:55.497Z,43.51
2022-08-23T07:47:28.703Z,43.29
2022-08-23T07:49:58.969Z,43.04
2022-08-23T07:52:28.330Z,42.96
2022-08-23T07:54:58.465Z,42.97
2022-08-23T07:57:45.702Z,42.52
2022-08-23T08:00:46.747Z,42.63
2022-08-23T08:03:34.007Z,42.73
2022-08-23T08:06:22.041Z,42.17
2022-08-23T08:08:51.415Z,42.23
2022-08-23T08:11:25.488Z,42.04
2022-08-23T08:13:54.904Z,42.02
2022-08-23T08:16:26.908Z,41.59
2022-08-23T08:18:56.870Z,41.33
2022-08-23T08:21:54.483Z,40.70
2022-08-23T08:24:39.631Z,40.49
2022-08-23T08:27:13.930Z,40.18
2022-08-23T08:29:45.111Z,40.31
2022-08-23T08:32:14.311Z,40.03
2022-08-23T08:34:43.913Z,40.29
2022-08-23T08:37:13.457Z,39.88
2022-08-23T08:39:45.934Z,40.28
2022-08-23T08:42:32.596Z,40.32
2022-08-23T08:45:06.219Z,39.83
2022-08-23T08:47:47.170Z,40.26
2022-08-23T08:50:24.239Z,40.32
2022-08-23T08:53:03.331Z,40.12
2022-08-23T08:55:54.818Z,38.99
2022-08-23T08:58:29.262Z,38.55
2022-08-23T09:00:58.359Z,38.44
2022-08-23T09:03:33.900Z,38.76
2022-08-23T09:06:13.793Z,38.79
2022-08-23T09:08:55.074Z,37.43
2022-08-23T09:11:36.698Z,37.42
2022-08-23T09:14:20.921Z,37.06
2022-08-23T09:16:53.440Z,36.59
2022-08-23T09:19:25.130Z,36.97
2022-08-23T09:21:58.813Z,36.63
2022-08-23T09:24:28.321Z,36.09
2022-08-23T09:27:05.856Z,36.65
2022-08-23T09:29:38.584Z,36.10
2022-08-23T09:32:26.694Z,35.40
2022-08-23T09:35:08.072Z,35.26
2022-08-23T09:37:50.831Z,34.19
2022-08-23T09:40:21.648Z,34.70
2022-08-23T09:43:04.807Z,33.75
2022-08-23T09:45:36.750Z,34.38
2022-08-23T09:48:08.815Z,34.25
2022-08-23T09:50:54.677Z,33.92
2022-08-23T09:53:28.240Z,33.90
2022-08-23T09:56:11.238Z,33.54
2022-08-23T09:58:43.473Z,33.54
2022-08-23T10:01:21.975Z,32.91
2022-08-23T10:04:12.801Z,32.64
2022-08-23T10:06:43.437Z,32.76
2022-08-23T10:09:25.124Z,32.50
2022-08-23T10:11:54.643Z,32.36
2022-08-23T10:14:28.810Z,31.78
2022-08-23T10:17:28.942Z,30.55
2022-08-23T10:20:10.276Z,30.58
2022-08-23T10:22:46.473Z,30.02
2022-08-23T10:25:34.504Z,29.35
2022-08-23T10:28:27.791Z,29.00
2022-08-23T10:31:03.569Z,28.97
2022-08-23T10:33:48.228Z,26.98
2022-08-23T10:36:22.043Z,26.60
2022-08-23T10:38:58.020Z,26.20
2022-08-23T10:41:47.460Z,26.49
2022-08-23T10:44:26.299Z,26.90
2022-08-23T10:47:07.442Z,26.46
2022-08-23T10:49:39.782Z,27.01
2022-08-23T10:52:14.476Z,26.62
2022-08-23T10:54:59.511Z,26.25
2022-08-23T10:57:34.224Z,25.12
2022-08-23T11:00:06.535Z,25.55
2022-08-23T11:02:45.654Z,26.24
2022-08-23T11:05:31.310Z,25.96
2022-08-23T11:08:05.793Z,26.57
2022-08-23T11:10:55.923Z,26.18
2022-08-23T11:13:35.138Z,26.54
2022-08-23T11:16:14.569Z,26.84
2022-08-23T11:18:47.288Z,27.28
2022-08-23T11:21:50.464Z,26.52
2022-08-23T11:24:52.539Z,26.38
2022-08-23T11:27:45.573Z,26.16
2022-08-23T11:30:47.754Z,27.14
2022-08-23T11:33:25.270Z,26.64
2022-08-23T11:36:16.767Z,26.64
2022-08-23T11:39:03.711Z,26.95
2022-08-23T11:41:33.730Z,26.29
2022-08-23T11:44:26.040Z,26.63
2022-08-23T11:47:01.508Z,25.97
2022-08-23T11:50:01.211Z,26.30
2022-08-23T11:52:56.266Z,26.62
2022-08-23T11:56:02.264Z,25.93
2022-08-23T11:58:46.526Z,25.06
2022-08-23T12:01:17.850Z,24.43
2022-08-23T12:03:58.642Z,25.20
2022-08-23T12:06:50.684Z,24.48
2022-08-23T12:09:54.067Z,26.10
2022-08-23T12:12:34.702Z,24.36
2022-08-23T12:15:08.779Z,24.24
2022-08-23T12:18:13.389Z,25.09
2022-08-23T12:20:43.382Z,25.18
2022-08-23T12:23:21.981Z,25.90
2022-08-23T12:26:11.271Z,25.99
2022-08-23T12:28:49.338Z,24.99
2022-08-23T12:31:24.617Z,25.67
2022-08-23T12:34:04.723Z,25.82
2022-08-23T12:36:40.339Z,25.62
2022-08-23T12:39:15.925Z,25.68
2022-08-23T12:41:55.811Z,25.02
2022-08-23T12:44:28.277Z,25.42
2022-08-23T12:46:57.164Z,25.68
2022-08-23T12:49:29.011Z,26.21
2022-08-23T12:52:00.211Z,26.39
2022-08-23T12:54:37.357Z,26.03
2022-08-23T12:57:11.702Z,25.90
2022-08-23T12:59:46.510Z,26.77
2022-08-23T13:02:22.013Z,26.38
2022-08-23T13:04:50.808Z,26.09
2022-08-23T13:07:23.199Z,26.14
2022-08-23T13:09:55.325Z,26.38
2022-08-23T13:12:25.029Z,25.90
2022-08-23T13:14:57.490Z,25.69
2022-08-23T13:17:36.745Z,25.25
2022-08-23T13:20:25.329Z,25.30
2022-08-23T13:23:02.732Z,25.51
2022-08-23T13:25:34.186Z,25.68
2022-08-23T13:28:05.541Z,25.73
2022-08-23T13:30:37.866Z,25.93
2022-08-23T13:33:21.058Z,26.24
2022-08-23T13:35:51.672Z,26.31
2022-08-23T13:38:25.178Z,26.43
2022-08-23T13:40:58.850Z,25.48
2022-08-23T13:43:31.540Z,25.82
2022-08-23T13:46:11.891Z,25.85
2022-08-23T13:48:48.472Z,25.75
2022-08-23T13:51:37.074Z,25.58
2022-08-23T13:54:08.203Z,26.10
2022-08-23T13:56:39.361Z,26.10
2022-08-23T13:59:23.636Z,25.68
2022-08-23T14:01:57.263Z,25.64
2022-08-23T14:04:25.672Z,25.95
2022-08-23T14:06:54.379Z,25.71
2022-08-23T14:09:22.858Z,25.77
2022-08-23T14:11:56.088Z,26.00
2022-08-23T14:14:25.020Z,26.17
2022-08-23T14:16:54.539Z,25.63
2022-08-23T14:22:13.257Z,26.10
2022-08-23T14:24:42.343Z,25.38
2022-08-23T14:27:11.426Z,25.64
2022-08-23T14:29:39.958Z,25.65
2022-08-23T14:32:08.609Z,25.47
2022-08-23T14:34:38.418Z,25.69
2022-08-23T14:39:56.044Z,25.83
2022-08-23T14:42:25.260Z,25.73
2022-08-23T14:44:53.809Z,25.77
2022-08-23T14:47:22.239Z,25.67
2022-08-23T14:49:53.867Z,25.68
2022-08-23T14:52:23.161Z,25.46
2022-08-23T14:54:51.810Z,25.45
2022-08-23T14:57:20.644Z,25.81
2022-08-23T14:59:49.113Z,25.59
2022-08-23T15:02:24.622Z,25.63
2022-08-23T15:04:55.805Z,25.67
2022-08-23T15:07:24.386Z,25.70
2022-08-23T15:09:55.707Z,25.78
2022-08-23T15:15:22.053Z,25.62
2022-08-23T15:17:53.458Z,25.90
2022-08-23T15:20:25.591Z,26.08
2022-08-23T15:22:55.267Z,25.88
2022-08-23T15:25:24.993Z,25.86
2022-08-23T15:27:53.872Z,25.74
2022-08-23T15:30:23.690Z,25.73
2022-08-23T15:33:00.277Z,25.43
2022-08-23T15:35:32.006Z,25.82
2022-08-23T15:38:00.633Z,25.93
2022-08-23T15:40:29.079Z,25.88
2022-08-23T15:42:57.551Z,25.83
2022-08-23T15:45:26.087Z,25.98
2022-08-23T15:47:56.963Z,26.53
2022-08-23T15:50:31.165Z,25.99
2022-08-23T15:52:59.739Z,26.26
2022-08-23T15:55:32.449Z,26.02
2022-08-23T15:58:01.366Z,26.17
2022-08-23T16:00:30.328Z,26.16
2022-08-23T16:03:18.923Z,26.24
2022-08-23T16:05:52.191Z,26.22
2022-08-23T16:08:24.892Z,26.34
2022-08-23T16:10:53.600Z,26.40
2022-08-23T16:13:22.356Z,26.42
2022-08-23T16:15:51.554Z,26.83
2022-08-23T16:18:20.705Z,26.96
2022-08-23T16:20:54.088Z,26.82
2022-08-23T16:23:23.410Z,26.77
2022-08-23T16:25:52.958Z,27.10
2022-08-23T16:28:21.451Z,27.13
2022-08-23T16:30:50.159Z,27.11
2022-08-23T16:33:18.681Z,27.17
2022-08-23T16:35:47.075Z,27.33
2022-08-23T16:38:17.052Z,27.47
2022-08-23T16:40:45.501Z,27.64
2022-08-23T16:43:13.966Z,27.73
2022-08-23T16:45:42.460Z,27.63
2022-08-23T16:48:14.672Z,27.68
2022-08-23T16:50:43.915Z,27.93
2022-08-23T16:53:12.407Z,28.09
2022-08-23T16:55:42.214Z,28.00
2022-08-23T16:58:10.986Z,28.45
2022-08-23T17:00:39.695Z,28.13
2022-08-23T17:03:08.374Z,28.29
2022-08-23T17:05:37.724Z,28.76
2022-08-23T17:08:07.449Z,28.47
2022-08-23T17:10:35.998Z,28.57
2022-08-23T17:13:06.848Z,28.70
2022-08-23T17:15:38.339Z,28.80
2022-08-23T17:18:07.030Z,28.93
2022-08-23T17:20:39.146Z,29.18
2022-08-23T17:23:08.156Z,29.38
2022-08-23T17:25:38.075Z,29.89
2022-08-23T17:28:07.886Z,29.55
2022-08-23T17:30:36.345Z,30.08
2022-08-23T17:33:05.053Z,29.95
2022-08-23T17:35:34.417Z,30.14
2022-08-23T17:38:03.804Z,30.20
2022-08-23T17:40:35.577Z,29.84
2022-08-23T17:43:05.128Z,30.25
2022-08-23T17:45:41.375Z,30.52
2022-08-23T17:48:09.926Z,30.65
2022-08-23T17:50:39.528Z,30.62
2022-08-23T17:53:08.346Z,30.56
2022-08-23T17:55:37.800Z,31.03
2022-08-23T17:58:06.921Z,31.02
2022-08-23T18:00:39.496Z,31.09
2022-08-23T18:03:08.617Z,31.20
2022-08-23T18:05:41.209Z,31.04
2022-08-23T18:08:09.868Z,30.98
2022-08-23T18:10:38.272Z,30.98
2022-08-23T18:13:06.958Z,31.36
2022-08-23T18:15:37.742Z,31.49
2022-08-23T18:18:06.291Z,31.64
2022-08-23T18:20:35.012Z,32.09
2022-08-23T18:23:03.830Z,31.51
2022-08-23T18:25:32.579Z,32.04
2022-08-23T18:28:10.284Z,32.42
2022-08-23T18:30:45.912Z,32.16
2022-08-23T18:33:14.584Z,32.75
2022-08-23T18:35:44.270Z,32.43
2022-08-23T18:38:14.012Z,33.14
2022-08-23T18:40:47.419Z,32.95
2022-08-23T18:43:18.194Z,32.94
2022-08-23T18:45:49.761Z,33.11
2022-08-23T18:48:19.642Z,33.54
2022-08-23T18:50:49.835Z,33.55
2022-08-23T18:53:19.633Z,33.99
2022-08-23T18:55:50.016Z,34.17
2022-08-23T18:58:19.232Z,33.96
2022-08-23T19:00:51.800Z,33.73
2022-08-23T19:03:20.617Z,34.13
2022-08-23T19:05:49.563Z,34.42
2022-08-23T19:08:19.461Z,33.95
2022-08-23T19:10:48.416Z,34.73
2022-08-23T19:13:17.081Z,35.03
2022-08-23T19:15:45.499Z,34.42
2022-08-23T19:18:16.195Z,34.63
2022-08-23T19:20:44.717Z,34.85
2022-08-23T19:23:13.679Z,35.28
2022-08-23T19:25:45.398Z,34.93
2022-08-23T19:28:14.712Z,34.65
2022-08-23T19:30:43.804Z,34.66
2022-08-23T19:33:12.345Z,35.03
2022-08-23T19:35:42.455Z,35.72
2022-08-23T19:38:12.219Z,35.42
2022-08-23T19:40:40.873Z,35.22
2022-08-23T19:43:10.268Z,35.70
2022-08-23T19:45:41.216Z,36.35
2022-08-23T19:48:10.136Z,36.20
2022-08-23T19:50:40.292Z,36.24
2022-08-23T19:53:10.551Z,36.98
2022-08-23T19:55:41.836Z,36.71
2022-08-23T19:58:14.719Z,36.94
2022-08-23T20:00:44.108Z,37.14
2022-08-23T20:03:13.027Z,37.15
2022-08-23T20:05:42.194Z,37.46
2022-08-23T20:08:12.271Z,37.23
2022-08-23T20:10:41.049Z,37.28
2022-08-23T20:13:09.531Z,37.57
2022-08-23T20:15:39.747Z,37.83
2022-08-23T20:18:08.223Z,37.84
2022-08-23T20:20:36.658Z,37.75
2022-08-23T20:23:22.826Z,37.91
2022-08-23T20:25:52.725Z,37.86
2022-08-23T20:28:25.752Z,37.80
2022-08-23T20:30:54.903Z,38.08
2022-08-23T20:33:23.653Z,38.22
2022-08-23T20:35:52.063Z,38.28
2022-08-23T20:38:32.934Z,38.29
2022-08-23T20:41:03.638Z,38.37
2022-08-23T20:43:33.766Z,38.42
2022-08-23T20:46:04.054Z,38.27
2022-08-23T20:48:33.203Z,38.43
2022-08-23T20:51:01.997Z,38.45
2022-08-23T20:53:30.772Z,38.57
2022-08-23T20:56:00.038Z,38.23
2022-08-23T20:58:30.430Z,37.92
2022-08-23T21:00:59.178Z,38.26
2022-08-23T21:03:29.979Z,38.06
2022-08-23T21:06:05.237Z,38.37
2022-08-23T21:08:34.972Z,38.19
2022-08-23T21:11:07.564Z,38.57
2022-08-23T21:13:41.355Z,38.42
2022-08-23T21:16:10.128Z,38.52
2022-08-23T21:18:38.718Z,38.41
2022-08-23T21:21:07.879Z,38.45
2022-08-23T21:23:37.718Z,38.45
2022-08-23T21:26:07.770Z,38.38
2022-08-23T21:28:37.990Z,38.92
2022-08-23T21:31:07.847Z,38.48
2022-08-23T21:33:39.979Z,38.66
2022-08-23T21:36:09.223Z,38.59
2022-08-23T21:38:38.095Z,38.82
2022-08-23T21:41:10.402Z,38.66
2022-08-23T21:43:40.538Z,39.11
2022-08-23T21:46:09.115Z,38.72
2022-08-23T21:48:37.671Z,38.80
2022-08-23T21:51:06.229Z,38.88
2022-08-23T21:53:34.980Z,38.99
2022-08-23T21:56:03.423Z,38.75
2022-08-23T21:58:31.919Z,38.47
2022-08-23T22:01:01.929Z,38.61
2022-08-23T22:03:30.449Z,38.88
2022-08-23T22:05:58.949Z,38.72
2022-08-23T22:08:27.479Z,38.43
2022-08-23T22:10:57.269Z,38.34
2022-08-23T22:13:28.261Z,38.34
2022-08-23T22:15:56.824Z,38.87
2022-08-23T22:18:26.724Z,38.81
2022-08-23T22:20:55.362Z,38.93
2022-08-23T22:23:23.816Z,38.77
2022-08-23T22:25:52.325Z,38.73
2022-08-23T22:28:20.793Z,38.99
2022-08-23T22:30:49.279Z,39.26
2022-08-23T22:33:18.457Z,39.27
2022-08-23T22:35:49.024Z,39.06
2022-08-23T22:38:18.078Z,39.28
2022-08-23T22:40:50.086Z,39.02
2022-08-23T22:43:19.404Z,39.10
2022-08-23T22:45:52.203Z,39.07
2022-08-23T22:48:21.656Z,39.60
2022-08-23T22:50:51.985Z,39.30
2022-08-23T22:53:20.669Z,39.70
2022-08-23T22:55:52.576Z,39.53
2022-08-23T22:58:21.010Z,39.41
2022-08-23T23:00:49.390Z,39.56
2022-08-23T23:03:17.882Z,39.48
2022-08-23T23:05:46.624Z,39.39
2022-08-23T23:08:28.404Z,39.71
2022-08-23T23:10:58.311Z,39.83
2022-08-23T23:13:27.718Z,39.67
2022-08-23T23:15:57.729Z,39.52
2022-08-23T23:18:27.738Z,39.59
2022-08-23T23:20:59.663Z,39.78
2022-08-23T23:23:31.767Z,39.79
2022-08-23T23:26:00.398Z,39.83
2022-08-23T23:28:29.201Z,40.25
2022-08-23T23:30:59.501Z,40.39
2022-08-23T23:33:28.134Z,40.54
2022-08-23T23:35:57.341Z,40.75
2022-08-23T23:38:25.858Z,40.97
2022-08-23T23:40:55.669Z,40.99
2022-08-23T23:43:24.136Z,41.33
2022-08-23T23:45:52.693Z,41.35
2022-08-23T23:48:21.237Z,41.74
2022-08-23T23:50:49.757Z,41.70
2022-08-23T23:53:18.263Z,41.98
2022-08-23T23:55:48.232Z,42.24
2022-08-23T23:58:18.232Z,42.45
